Sunderland, Massachusetts
Current Conditions -  °F | °C
As of 5:52 PM on Thursday 27 Nov 2014 (Local Time) from KORE Reporting Station
NA  
Wind Chill: 24°   Ceiling: NA
Heat Index: 30°   Visibility: 10mi
Dew Point: 26°   Wind: 6mph
Humidity: 85%   Direction: 350°N
Pressure: 29.98"   Gusts: NA
Location:  42.47°N, 72.58°W
Report Text: KORE 272252Z AUTO 35005KT 10SM M01/M03 A2998 RMK AO2 SLPNO T10111033 $
Loading
Personal Weather Stations






























Interactive Weather Map New forecast layout! Learn more

10-Day Weather Forecast

Advertisements
Track Severe Weather on mobile